sensor_id;sensor_type;location;lat;lon;timestamp;pressure;altitude;pressure_sealevel;temperature;humidity
3780;BME280;1905;52.482;9.802;2022-12-10T00:01:43;100396.22;;;0.99;87.66
3780;BME280;1905;52.482;9.802;2022-12-10T00:04:12;100400.53;;;1.02;88.19
3780;BME280;1905;52.482;9.802;2022-12-10T00:06:46;100394.47;;;1.01;88.09
3780;BME280;1905;52.482;9.802;2022-12-10T00:09:19;100400.53;;;1.02;88.12
3780;BME280;1905;52.482;9.802;2022-12-10T00:11:47;100399.66;;;1.01;88.21
3780;BME280;1905;52.482;9.802;2022-12-10T00:14:20;100396.16;;;1.04;87.93
3780;BME280;1905;52.482;9.802;2022-12-10T00:16:47;100399.66;;;1.01;87.78
3780;BME280;1905;52.482;9.802;2022-12-10T00:19:17;100400.53;;;1.02;88.17
3780;BME280;1905;52.482;9.802;2022-12-10T00:21:46;100402.25;;;1.03;88.42
3780;BME280;1905;52.482;9.802;2022-12-10T00:24:14;100406.53;;;1.07;88.10
3780;BME280;1905;52.482;9.802;2022-12-10T00:26:42;100405.72;;;1.02;88.58
3780;BME280;1905;52.482;9.802;2022-12-10T00:29:13;100404.88;;;1.03;88.31
3780;BME280;1905;52.482;9.802;2022-12-10T00:31:41;100410.91;;;1.05;87.68
3780;BME280;1905;52.482;9.802;2022-12-10T00:34:10;100414.38;;;1.04;88.09
3780;BME280;1905;52.482;9.802;2022-12-10T00:36:40;100420.47;;;1.03;87.88
3780;BME280;1905;52.482;9.802;2022-12-10T00:39:12;100420.47;;;1.03;88.40
3780;BME280;1905;52.482;9.802;2022-12-10T00:41:42;100416.09;;;1.05;88.12
3780;BME280;1905;52.482;9.802;2022-12-10T00:44:10;100422.16;;;1.04;88.01
3780;BME280;1905;52.482;9.802;2022-12-10T00:46:38;100420.44;;;1.04;88.18
3780;BME280;1905;52.482;9.802;2022-12-10T00:49:09;100418.69;;;1.03;88.10
3780;BME280;1905;52.482;9.802;2022-12-10T00:51:38;100416.09;;;1.05;87.80
3780;BME280;1905;52.482;9.802;2022-12-10T00:54:14;100420.44;;;1.04;88.49
3780;BME280;1905;52.482;9.802;2022-12-10T00:56:45;100421.28;;;1.05;88.26
3780;BME280;1905;52.482;9.802;2022-12-10T00:59:13;100423.03;;;1.06;87.76
3780;BME280;1905;52.482;9.802;2022-12-10T01:01:42;100424.75;;;1.08;88.00
3780;BME280;1905;52.482;9.802;2022-12-10T01:04:11;100422.16;;;1.04;88.08
3780;BME280;1905;52.482;9.802;2022-12-10T01:06:42;100424.72;;;1.07;88.08
3780;BME280;1905;52.482;9.802;2022-12-10T01:09:13;100424.75;;;1.04;88.26
3780;BME280;1905;52.482;9.802;2022-12-10T01:11:44;100435.13;;;1.07;87.91
3780;BME280;1905;52.482;9.802;2022-12-10T01:14:16;100434.25;;;1.06;88.28
3780;BME280;1905;52.482;9.802;2022-12-10T01:16:46;100432.56;;;1.04;88.33
3780;BME280;1905;52.482;9.802;2022-12-10T01:19:16;100436.91;;;1.05;88.02
3780;BME280;1905;52.482;9.802;2022-12-10T01:21:49;100431.69;;;1.05;87.90
3780;BME280;1905;52.482;9.802;2022-12-10T01:24:20;100442.97;;;1.05;88.41
3780;BME280;1905;52.482;9.802;2022-12-10T01:26:51;100449.03;;;1.06;87.87
3780;BME280;1905;52.482;9.802;2022-12-10T01:29:20;100442.09;;;1.05;88.29
3780;BME280;1905;52.482;9.802;2022-12-10T01:31:51;100442.97;;;1.05;88.07
3780;BME280;1905;52.482;9.802;2022-12-10T01:34:23;100437.72;;;1.07;88.14
3780;BME280;1905;52.482;9.802;2022-12-10T01:36:55;100448.13;;;1.07;88.13
3780;BME280;1905;52.482;9.802;2022-12-10T01:39:23;100450.72;;;1.07;88.12
3780;BME280;1905;52.482;9.802;2022-12-10T01:41:55;100449.03;;;1.06;88.56
3780;BME280;1905;52.482;9.802;2022-12-10T01:44:59;100454.16;;;1.09;87.94
3780;BME280;1905;52.482;9.802;2022-12-10T01:47:27;100451.59;;;1.07;88.33
3780;BME280;1905;52.482;9.802;2022-12-10T01:49:58;100453.34;;;1.08;87.89
3780;BME280;1905;52.482;9.802;2022-12-10T01:52:27;100452.47;;;1.08;87.59
3780;BME280;1905;52.482;9.802;2022-12-10T01:54:55;100452.47;;;1.08;88.54
3780;BME280;1905;52.482;9.802;2022-12-10T01:57:26;100452.47;;;1.08;87.86
3780;BME280;1905;52.482;9.802;2022-12-10T01:59:56;100457.66;;;1.08;88.36
3780;BME280;1905;52.482;9.802;2022-12-10T02:02:38;100452.44;;;1.11;87.80
3780;BME280;1905;52.482;9.802;2022-12-10T02:05:17;100454.16;;;1.12;88.24
3780;BME280;1905;52.482;9.802;2022-12-10T02:07:57;100452.44;;;1.09;88.09
3780;BME280;1905;52.482;9.802;2022-12-10T02:10:37;100457.66;;;1.08;88.05
3780;BME280;1905;52.482;9.802;2022-12-10T02:13:15;100442.94;;;1.08;87.84
3780;BME280;1905;52.482;9.802;2022-12-10T02:15:49;100449.88;;;1.06;88.39
3780;BME280;1905;52.482;9.802;2022-12-10T02:18:20;100443.84;;;1.06;88.18
3780;BME280;1905;52.482;9.802;2022-12-10T02:20:50;100455.94;;;1.08;88.45
3780;BME280;1905;52.482;9.802;2022-12-10T02:23:22;100450.72;;;1.07;87.84
3780;BME280;1905;52.482;9.802;2022-12-10T02:25:59;100447.28;;;1.08;88.32
3780;BME280;1905;52.482;9.802;2022-12-10T02:28:36;100447.28;;;1.08;88.18
3780;BME280;1905;52.482;9.802;2022-12-10T02:31:09;100450.72;;;1.07;88.14
3780;BME280;1905;52.482;9.802;2022-12-10T02:33:40;100440.34;;;1.07;87.88
3780;BME280;1905;52.482;9.802;2022-12-10T02:36:12;100447.28;;;1.08;88.33
3780;BME280;1905;52.482;9.802;2022-12-10T02:38:41;100446.44;;;1.06;88.01
3780;BME280;1905;52.482;9.802;2022-12-10T02:41:14;100442.03;;;1.09;88.32
3780;BME280;1905;52.482;9.802;2022-12-10T02:43:45;100436.88;;;1.08;88.09
3780;BME280;1905;52.482;9.802;2022-12-10T02:46:16;100440.34;;;1.07;87.83
3780;BME280;1905;52.482;9.802;2022-12-10T02:48:47;100450.75;;;1.08;87.92
3780;BME280;1905;52.482;9.802;2022-12-10T02:51:16;100439.47;;;1.06;88.17
3780;BME280;1905;52.482;9.802;2022-12-10T02:53:45;100433.44;;;1.06;88.13
3780;BME280;1905;52.482;9.802;2022-12-10T02:56:15;100445.53;;;1.07;87.81
3780;BME280;1905;52.482;9.802;2022-12-10T02:58:57;100452.47;;;1.06;88.40
3780;BME280;1905;52.482;9.802;2022-12-10T03:01:39;100447.28;;;1.08;87.80
3780;BME280;1905;52.482;9.802;2022-12-10T03:04:13;100449.03;;;1.06;88.15
3780;BME280;1905;52.482;9.802;2022-12-10T03:06:47;100454.22;;;1.06;87.95
3780;BME280;1905;52.482;9.802;2022-12-10T03:09:22;100448.13;;;1.07;87.55
3780;BME280;1905;52.482;9.802;2022-12-10T03:11:57;100451.63;;;1.06;88.18
3780;BME280;1905;52.482;9.802;2022-12-10T03:14:29;100455.97;;;1.05;88.02
3780;BME280;1905;52.482;9.802;2022-12-10T03:17:00;100454.22;;;1.06;87.88
3780;BME280;1905;52.482;9.802;2022-12-10T03:19:32;100456.81;;;1.06;88.20
3780;BME280;1905;52.482;9.802;2022-12-10T03:22:04;100454.22;;;1.06;87.84
3780;BME280;1905;52.482;9.802;2022-12-10T03:24:34;100445.56;;;1.04;88.48
3780;BME280;1905;52.482;9.802;2022-12-10T03:27:04;100452.50;;;1.05;87.90
3780;BME280;1905;52.482;9.802;2022-12-10T03:29:34;100449.03;;;1.06;88.29
3780;BME280;1905;52.482;9.802;2022-12-10T03:32:05;100443.84;;;1.06;88.25
3780;BME280;1905;52.482;9.802;2022-12-10T03:34:34;100449.03;;;1.06;88.44
3780;BME280;1905;52.482;9.802;2022-12-10T03:37:03;100449.03;;;1.06;88.02
3780;BME280;1905;52.482;9.802;2022-12-10T03:39:32;100447.28;;;1.05;87.57
3780;BME280;1905;52.482;9.802;2022-12-10T03:42:00;100446.44;;;1.04;87.62
3780;BME280;1905;52.482;9.802;2022-12-10T03:44:28;100438.63;;;1.06;87.71
3780;BME280;1905;52.482;9.802;2022-12-10T03:46:57;100445.56;;;1.04;88.19
3780;BME280;1905;52.482;9.802;2022-12-10T03:49:26;100455.09;;;1.05;88.39
3780;BME280;1905;52.482;9.802;2022-12-10T03:51:54;100440.34;;;1.04;87.95
3780;BME280;1905;52.482;9.802;2022-12-10T03:54:21;100449.06;;;1.03;88.16
3780;BME280;1905;52.482;9.802;2022-12-10T03:56:49;100453.38;;;1.02;87.95
3780;BME280;1905;52.482;9.802;2022-12-10T03:59:17;100448.19;;;1.02;88.39
3780;BME280;1905;52.482;9.802;2022-12-10T04:01:45;100452.50;;;1.02;88.10
3780;BME280;1905;52.482;9.802;2022-12-10T04:04:13;100448.19;;;1.01;88.32
3780;BME280;1905;52.482;9.802;2022-12-10T04:06:42;100450.78;;;1.02;88.27
3780;BME280;1905;52.482;9.802;2022-12-10T04:09:11;100461.16;;;1.04;88.33
3780;BME280;1905;52.482;9.802;2022-12-10T04:11:41;100466.34;;;1.05;88.22
3780;BME280;1905;52.482;9.802;2022-12-10T04:14:09;100468.09;;;1.05;87.46
3780;BME280;1905;52.482;9.802;2022-12-10T04:16:54;100468.13;;;1.02;88.11
3780;BME280;1905;52.482;9.802;2022-12-10T04:19:22;100464.66;;;1.03;87.98
3780;BME280;1905;52.482;9.802;2022-12-10T04:21:51;100469.84;;;1.03;88.05
3780;BME280;1905;52.482;9.802;2022-12-10T04:24:37;100465.50;;;1.02;87.76
3780;BME280;1905;52.482;9.802;2022-12-10T04:27:24;100464.69;;;1.00;88.32
3780;BME280;1905;52.482;9.802;2022-12-10T04:29:54;100458.59;;;0.99;87.76
3780;BME280;1905;52.482;9.802;2022-12-10T04:32:23;100468.13;;;0.99;87.99
3780;BME280;1905;52.482;9.802;2022-12-10T04:34:51;100464.69;;;1.00;88.22
3780;BME280;1905;52.482;9.802;2022-12-10T04:37:20;100469.88;;;1.00;88.22
3780;BME280;1905;52.482;9.802;2022-12-10T04:39:49;100471.59;;;0.99;87.91
3780;BME280;1905;52.482;9.802;2022-12-10T04:42:17;100473.34;;;0.99;87.88
3780;BME280;1905;52.482;9.802;2022-12-10T04:44:45;100476.84;;;0.98;87.91
3780;BME280;1905;52.482;9.802;2022-12-10T04:47:13;100475.09;;;0.97;87.93
3780;BME280;1905;52.482;9.802;2022-12-10T04:49:41;100470.75;;;0.97;87.88
3780;BME280;1905;52.482;9.802;2022-12-10T04:52:11;100475.09;;;0.97;88.21
3780;BME280;1905;52.482;9.802;2022-12-10T04:54:43;100466.44;;;0.98;88.18
3780;BME280;1905;52.482;9.802;2022-12-10T04:57:11;100477.66;;;0.98;87.79
3780;BME280;1905;52.482;9.802;2022-12-10T04:59:40;100477.66;;;1.01;88.05
3780;BME280;1905;52.482;9.802;2022-12-10T05:02:07;100473.38;;;0.97;87.78
3780;BME280;1905;52.482;9.802;2022-12-10T05:04:35;100477.66;;;0.98;87.86
3780;BME280;1905;52.482;9.802;2022-12-10T05:07:03;100470.78;;;0.94;88.12
3780;BME280;1905;52.482;9.802;2022-12-10T05:09:31;100464.69;;;0.97;87.76
3780;BME280;1905;52.482;9.802;2022-12-10T05:11:59;100469.06;;;0.93;87.82
3780;BME280;1905;52.482;9.802;2022-12-10T05:14:27;100466.47;;;0.95;87.92
3780;BME280;1905;52.482;9.802;2022-12-10T05:16:55;100472.50;;;0.97;87.81
3780;BME280;1905;52.482;9.802;2022-12-10T05:19:22;100471.66;;;0.95;88.11
3780;BME280;1905;52.482;9.802;2022-12-10T05:21:53;100468.16;;;0.96;88.31
3780;BME280;1905;52.482;9.802;2022-12-10T05:24:38;100465.56;;;0.96;88.07
3780;BME280;1905;52.482;9.802;2022-12-10T05:27:08;100473.38;;;0.93;88.11
3780;BME280;1905;52.482;9.802;2022-12-10T05:29:35;100463.84;;;0.93;87.91
3780;BME280;1905;52.482;9.802;2022-12-10T05:32:03;100467.34;;;0.92;88.02
3780;BME280;1905;52.482;9.802;2022-12-10T05:34:31;100462.16;;;0.92;87.84
3780;BME280;1905;52.482;9.802;2022-12-10T05:36:59;100471.66;;;0.90;88.17
3780;BME280;1905;52.482;9.802;2022-12-10T05:39:27;100480.34;;;0.91;87.75
3780;BME280;1905;52.482;9.802;2022-12-10T05:41:54;100480.31;;;0.94;88.08
3780;BME280;1905;52.482;9.802;2022-12-10T05:44:23;100469.06;;;0.90;88.12
3780;BME280;1905;52.482;9.802;2022-12-10T05:46:52;100478.59;;;0.90;87.94
3780;BME280;1905;52.482;9.802;2022-12-10T05:49:19;100470.81;;;0.90;88.00
3780;BME280;1905;52.482;9.802;2022-12-10T05:51:47;100479.50;;;0.89;87.86
3780;BME280;1905;52.482;9.802;2022-12-10T05:54:15;100487.28;;;0.89;87.58
3780;BME280;1905;52.482;9.802;2022-12-10T05:56:42;100480.34;;;0.88;87.98
3780;BME280;1905;52.482;9.802;2022-12-10T05:59:10;100483.84;;;0.87;87.88
3780;BME280;1905;52.482;9.802;2022-12-10T06:01:44;100489.03;;;0.87;87.58
3780;BME280;1905;52.482;9.802;2022-12-10T06:04:12;100484.69;;;0.89;87.63
3780;BME280;1905;52.482;9.802;2022-12-10T06:06:40;100494.25;;;0.87;87.90
3780;BME280;1905;52.482;9.802;2022-12-10T06:09:12;100492.50;;;0.86;87.59
3780;BME280;1905;52.482;9.802;2022-12-10T06:11:40;100496.84;;;0.87;88.25
3780;BME280;1905;52.482;9.802;2022-12-10T06:14:08;100492.50;;;0.86;87.86
3780;BME280;1905;52.482;9.802;2022-12-10T06:16:36;100497.72;;;0.86;87.31
3780;BME280;1905;52.482;9.802;2022-12-10T06:19:05;100504.66;;;0.84;87.90
3780;BME280;1905;52.482;9.802;2022-12-10T06:21:33;100505.53;;;0.84;87.55
3780;BME280;1905;52.482;9.802;2022-12-10T06:24:02;100508.97;;;0.85;88.04
3780;BME280;1905;52.482;9.802;2022-12-10T06:26:29;100516.75;;;0.85;87.90
3780;BME280;1905;52.482;9.802;2022-12-10T06:28:57;100515.06;;;0.84;87.68
3780;BME280;1905;52.482;9.802;2022-12-10T06:31:26;100508.97;;;0.85;87.73
3780;BME280;1905;52.482;9.802;2022-12-10T06:33:54;100508.13;;;0.83;87.44
3780;BME280;1905;52.482;9.802;2022-12-10T06:36:23;100518.50;;;0.83;87.70
3780;BME280;1905;52.482;9.802;2022-12-10T06:38:51;100522.84;;;0.84;87.62
3780;BME280;1905;52.482;9.802;2022-12-10T06:41:19;100523.75;;;0.81;88.06
3780;BME280;1905;52.482;9.802;2022-12-10T06:43:47;100523.75;;;0.81;87.69
3780;BME280;1905;52.482;9.802;2022-12-10T06:46:17;100518.53;;;0.80;88.07
3780;BME280;1905;52.482;9.802;2022-12-10T06:48:45;100514.19;;;0.80;87.89
3780;BME280;1905;52.482;9.802;2022-12-10T06:51:14;100520.28;;;0.81;88.04
3780;BME280;1905;52.482;9.802;2022-12-10T06:53:45;100528.09;;;0.78;88.00
3780;BME280;1905;52.482;9.802;2022-12-10T06:56:15;100522.03;;;0.76;87.83
3780;BME280;1905;52.482;9.802;2022-12-10T06:58:43;100523.75;;;0.77;87.44
3780;BME280;1905;52.482;9.802;2022-12-10T07:01:13;100525.47;;;0.78;87.68
3780;BME280;1905;52.482;9.802;2022-12-10T07:03:41;100532.44;;;0.76;87.82
3780;BME280;1905;52.482;9.802;2022-12-10T07:06:10;100524.63;;;0.77;87.39
3780;BME280;1905;52.482;9.802;2022-12-10T07:08:38;100536.75;;;0.74;87.62
3780;BME280;1905;52.482;9.802;2022-12-10T07:11:10;100535.91;;;0.73;87.56
3780;BME280;1905;52.482;9.802;2022-12-10T07:13:38;100534.19;;;0.72;87.56
3780;BME280;1905;52.482;9.802;2022-12-10T07:16:11;100545.41;;;0.74;87.95
3780;BME280;1905;52.482;9.802;2022-12-10T07:18:39;100540.25;;;0.73;87.60
3780;BME280;1905;52.482;9.802;2022-12-10T07:21:14;100542.00;;;0.69;88.18
3780;BME280;1905;52.482;9.802;2022-12-10T07:23:42;100546.31;;;0.72;87.49
3780;BME280;1905;52.482;9.802;2022-12-10T07:26:11;100548.91;;;0.69;87.81
3780;BME280;1905;52.482;9.802;2022-12-10T07:28:39;100549.78;;;0.71;87.66
3780;BME280;1905;52.482;9.802;2022-12-10T07:31:18;100551.50;;;0.69;87.84
3780;BME280;1905;52.482;9.802;2022-12-10T07:33:47;100556.72;;;0.69;87.52
3780;BME280;1905;52.482;9.802;2022-12-10T07:36:14;100560.19;;;0.71;87.92
3780;BME280;1905;52.482;9.802;2022-12-10T07:38:42;100561.91;;;0.69;87.73
3780;BME280;1905;52.482;9.802;2022-12-10T07:41:12;100560.22;;;0.65;87.91
3780;BME280;1905;52.482;9.802;2022-12-10T07:43:42;100565.41;;;0.68;87.74
3780;BME280;1905;52.482;9.802;2022-12-10T07:46:12;100567.13;;;0.67;87.30
3780;BME280;1905;52.482;9.802;2022-12-10T07:48:41;100574.03;;;0.68;87.46
3780;BME280;1905;52.482;9.802;2022-12-10T07:51:09;100575.78;;;0.68;87.52
3780;BME280;1905;52.482;9.802;2022-12-10T07:53:38;100573.19;;;0.68;87.85
3780;BME280;1905;52.482;9.802;2022-12-10T07:56:06;100568.84;;;0.67;87.17
3780;BME280;1905;52.482;9.802;2022-12-10T07:58:36;100568.84;;;0.67;87.30
3780;BME280;1905;52.482;9.802;2022-12-10T08:01:07;100567.13;;;0.66;87.76
3780;BME280;1905;52.482;9.802;2022-12-10T08:03:36;100570.59;;;0.68;87.88
3780;BME280;1905;52.482;9.802;2022-12-10T08:06:05;100581.84;;;0.64;87.96
3780;BME280;1905;52.482;9.802;2022-12-10T08:08:34;100578.41;;;0.63;87.92
3780;BME280;1905;52.482;9.802;2022-12-10T08:11:03;100571.47;;;0.65;87.65
3780;BME280;1905;52.482;9.802;2022-12-10T08:13:32;100571.47;;;0.64;87.75
3780;BME280;1905;52.482;9.802;2022-12-10T08:16:06;100569.72;;;0.66;87.43
3780;BME280;1905;52.482;9.802;2022-12-10T08:18:34;100575.81;;;0.65;87.87
3780;BME280;1905;52.482;9.802;2022-12-10T08:21:04;100573.19;;;0.68;87.88
3780;BME280;1905;52.482;9.802;2022-12-10T08:23:31;100572.31;;;0.66;87.35
3780;BME280;1905;52.482;9.802;2022-12-10T08:26:02;100571.47;;;0.65;87.56
3780;BME280;1905;52.482;9.802;2022-12-10T08:28:30;100577.50;;;0.66;87.82
3780;BME280;1905;52.482;9.802;2022-12-10T08:30:58;100578.38;;;0.66;87.56
3780;BME280;1905;52.482;9.802;2022-12-10T08:33:27;100578.41;;;0.65;87.73
3780;BME280;1905;52.482;9.802;2022-12-10T08:35:57;100584.47;;;0.64;87.60
3780;BME280;1905;52.482;9.802;2022-12-10T08:38:24;100591.41;;;0.65;87.39
3780;BME280;1905;52.482;9.802;2022-12-10T08:40:52;100589.63;;;0.67;87.35
3780;BME280;1905;52.482;9.802;2022-12-10T08:43:20;100590.50;;;0.67;87.14
3780;BME280;1905;52.482;9.802;2022-12-10T08:45:48;100593.09;;;0.69;87.48
3780;BME280;1905;52.482;9.802;2022-12-10T08:48:15;100591.38;;;0.66;87.39
3780;BME280;1905;52.482;9.802;2022-12-10T08:50:44;100598.28;;;0.69;87.75
3780;BME280;1905;52.482;9.802;2022-12-10T08:53:12;100602.63;;;0.67;87.33
3780;BME280;1905;52.482;9.802;2022-12-10T08:55:40;100598.28;;;0.66;87.77
3780;BME280;1905;52.482;9.802;2022-12-10T08:58:14;100604.38;;;0.65;87.62
3780;BME280;1905;52.482;9.802;2022-12-10T09:00:42;100607.81;;;0.67;87.56
3780;BME280;1905;52.482;9.802;2022-12-10T09:03:09;100603.50;;;0.66;87.60
3780;BME280;1905;52.482;9.802;2022-12-10T09:05:37;100609.59;;;0.65;87.75
3780;BME280;1905;52.482;9.802;2022-12-10T09:08:06;100606.97;;;0.66;87.47
3780;BME280;1905;52.482;9.802;2022-12-10T09:10:35;100609.59;;;0.65;87.51
3780;BME280;1905;52.482;9.802;2022-12-10T09:13:03;100614.75;;;0.69;87.34
3780;BME280;1905;52.482;9.802;2022-12-10T09:15:31;100620.81;;;0.67;87.74
3780;BME280;1905;52.482;9.802;2022-12-10T09:17:58;100615.63;;;0.67;87.68
3780;BME280;1905;52.482;9.802;2022-12-10T09:20:26;100619.97;;;0.68;87.52
3780;BME280;1905;52.482;9.802;2022-12-10T09:22:54;100620.81;;;0.67;87.71
3780;BME280;1905;52.482;9.802;2022-12-10T09:25:22;100622.56;;;0.68;87.67
3780;BME280;1905;52.482;9.802;2022-12-10T09:27:50;100626.00;;;0.68;87.83
3780;BME280;1905;52.482;9.802;2022-12-10T09:30:18;100626.88;;;0.67;87.85
3780;BME280;1905;52.482;9.802;2022-12-10T09:32:45;100626.00;;;0.67;87.55
3780;BME280;1905;52.482;9.802;2022-12-10T09:35:13;100626.88;;;0.69;87.69
3780;BME280;1905;52.482;9.802;2022-12-10T09:37:41;100632.09;;;0.67;87.71
3780;BME280;1905;52.482;9.802;2022-12-10T09:40:10;100626.00;;;0.70;87.63
3780;BME280;1905;52.482;9.802;2022-12-10T09:42:49;100625.16;;;0.71;87.24
3780;BME280;1905;52.482;9.802;2022-12-10T09:45:24;100631.19;;;0.70;87.69
3780;BME280;1905;52.482;9.802;2022-12-10T09:47:59;100632.94;;;0.71;87.53
3780;BME280;1905;52.482;9.802;2022-12-10T09:50:31;100626.88;;;0.70;87.26
3780;BME280;1905;52.482;9.802;2022-12-10T09:53:03;100631.19;;;0.73;87.53
3780;BME280;1905;52.482;9.802;2022-12-10T09:55:38;100628.59;;;0.73;87.49
3780;BME280;1905;52.482;9.802;2022-12-10T09:58:13;100635.50;;;0.74;87.38
3780;BME280;1905;52.482;9.802;2022-12-10T10:00:47;100621.66;;;0.73;87.35
3780;BME280;1905;52.482;9.802;2022-12-10T10:03:16;100625.13;;;0.75;87.13
3780;BME280;1905;52.482;9.802;2022-12-10T10:05:46;100624.25;;;0.75;87.30
3780;BME280;1905;52.482;9.802;2022-12-10T10:08:20;100625.09;;;0.77;87.81
3780;BME280;1905;52.482;9.802;2022-12-10T10:10:50;100624.22;;;0.78;87.30
3780;BME280;1905;52.482;9.802;2022-12-10T10:13:26;100622.50;;;0.78;87.19
3780;BME280;1905;52.482;9.802;2022-12-10T10:15:57;100619.03;;;0.78;87.32
3780;BME280;1905;52.482;9.802;2022-12-10T10:18:33;100623.38;;;0.79;87.59
3780;BME280;1905;52.482;9.802;2022-12-10T10:21:05;100628.56;;;0.80;87.43
3780;BME280;1905;52.482;9.802;2022-12-10T10:23:34;100620.72;;;0.82;87.50
3780;BME280;1905;52.482;9.802;2022-12-10T10:26:02;100622.47;;;0.83;87.13
3780;BME280;1905;52.482;9.802;2022-12-10T10:28:31;100619.00;;;0.84;87.42
3780;BME280;1905;52.482;9.802;2022-12-10T10:30:58;100625.06;;;0.86;87.22
3780;BME280;1905;52.482;9.802;2022-12-10T10:33:26;100623.31;;;0.88;87.54
3780;BME280;1905;52.482;9.802;2022-12-10T10:35:56;100618.97;;;0.88;87.51
3780;BME280;1905;52.482;9.802;2022-12-10T10:38:27;100634.56;;;0.88;86.91
3780;BME280;1905;52.482;9.802;2022-12-10T10:40:56;100629.34;;;0.90;87.54
3780;BME280;1905;52.482;9.802;2022-12-10T10:43:26;100631.09;;;0.91;87.87
3780;BME280;1905;52.482;9.802;2022-12-10T10:45:58;100625.03;;;0.92;87.54
3780;BME280;1905;52.482;9.802;2022-12-10T10:48:28;100631.06;;;0.94;87.32
3780;BME280;1905;52.482;9.802;2022-12-10T10:51:06;100624.13;;;0.96;87.14
3780;BME280;1905;52.482;9.802;2022-12-10T10:53:40;100628.44;;;0.95;87.17
3780;BME280;1905;52.482;9.802;2022-12-10T10:56:11;100624.13;;;0.96;86.94
3780;BME280;1905;52.482;9.802;2022-12-10T10:58:50;100628.47;;;0.97;87.48
3780;BME280;1905;52.482;9.802;2022-12-10T11:01:22;100619.81;;;0.98;87.09
3780;BME280;1905;52.482;9.802;2022-12-10T11:03:54;100624.09;;;0.99;87.08
3780;BME280;1905;52.482;9.802;2022-12-10T11:06:22;100625.84;;;1.00;87.14
3780;BME280;1905;52.482;9.802;2022-12-10T11:08:54;100632.75;;;1.01;87.40
3780;BME280;1905;52.482;9.802;2022-12-10T11:11:32;100624.97;;;0.99;87.30
3780;BME280;1905;52.482;9.802;2022-12-10T11:14:19;100625.84;;;1.03;87.06
3780;BME280;1905;52.482;9.802;2022-12-10T11:17:00;100626.66;;;1.03;87.45
3780;BME280;1905;52.482;9.802;2022-12-10T11:19:28;100620.63;;;1.03;87.00
3780;BME280;1905;52.482;9.802;2022-12-10T11:22:21;100620.59;;;1.04;87.30
3780;BME280;1905;52.482;9.802;2022-12-10T11:24:49;100618.88;;;1.05;87.48
3780;BME280;1905;52.482;9.802;2022-12-10T11:27:36;100628.38;;;1.07;87.50
3780;BME280;1905;52.482;9.802;2022-12-10T11:30:09;100631.00;;;1.06;87.37
3780;BME280;1905;52.482;9.802;2022-12-10T11:33:09;100624.06;;;1.08;87.72
3780;BME280;1905;52.482;9.802;2022-12-10T11:35:47;100611.91;;;1.07;87.28
3780;BME280;1905;52.482;9.802;2022-12-10T11:38:23;100621.47;;;1.08;87.01
3780;BME280;1905;52.482;9.802;2022-12-10T11:41:00;100622.34;;;1.08;87.12
3780;BME280;1905;52.482;9.802;2022-12-10T11:43:45;100620.56;;;1.09;87.13
3780;BME280;1905;52.482;9.802;2022-12-10T11:46:27;100619.72;;;1.10;87.20
3780;BME280;1905;52.482;9.802;2022-12-10T11:49:12;100622.31;;;1.10;87.48
3780;BME280;1905;52.482;9.802;2022-12-10T11:51:46;100629.25;;;1.11;87.11
3780;BME280;1905;52.482;9.802;2022-12-10T11:54:33;100629.22;;;1.14;87.01
3780;BME280;1905;52.482;9.802;2022-12-10T11:57:09;100618.81;;;1.12;87.35
3780;BME280;1905;52.482;9.802;2022-12-10T11:59:48;100622.28;;;1.13;86.97
3780;BME280;1905;52.482;9.802;2022-12-10T12:02:51;100631.81;;;1.12;86.69
3780;BME280;1905;52.482;9.802;2022-12-10T12:05:36;100625.75;;;1.12;87.39
3780;BME280;1905;52.482;9.802;2022-12-10T12:08:13;100634.44;;;1.14;87.02
3780;BME280;1905;52.482;9.802;2022-12-10T12:11:00;100624.88;;;1.14;86.84
3780;BME280;1905;52.482;9.802;2022-12-10T12:13:37;100629.22;;;1.14;87.30
3780;BME280;1905;52.482;9.802;2022-12-10T12:16:11;100627.50;;;1.13;87.04
3780;BME280;1905;52.482;9.802;2022-12-10T12:18:47;100638.75;;;1.13;87.38
3780;BME280;1905;52.482;9.802;2022-12-10T12:21:19;100633.56;;;1.13;86.93
3780;BME280;1905;52.482;9.802;2022-12-10T12:23:50;100629.22;;;1.12;86.69
3780;BME280;1905;52.482;9.802;2022-12-10T12:26:31;100633.53;;;1.15;87.35
3780;BME280;1905;52.482;9.802;2022-12-10T12:29:11;100638.75;;;1.13;87.20
3780;BME280;1905;52.482;9.802;2022-12-10T12:31:43;100634.44;;;1.14;87.07
3780;BME280;1905;52.482;9.802;2022-12-10T12:34:18;100630.94;;;1.15;86.97
3780;BME280;1905;52.482;9.802;2022-12-10T12:36:50;100620.53;;;1.15;87.45
3780;BME280;1905;52.482;9.802;2022-12-10T12:39:26;100629.19;;;1.17;87.13
3780;BME280;1905;52.482;9.802;2022-12-10T12:41:59;100622.28;;;1.16;87.38
3780;BME280;1905;52.482;9.802;2022-12-10T12:44:36;100612.72;;;1.15;87.36
3780;BME280;1905;52.482;9.802;2022-12-10T12:47:16;100620.53;;;1.18;87.12
3780;BME280;1905;52.482;9.802;2022-12-10T12:49:48;100614.47;;;1.14;86.67
3780;BME280;1905;52.482;9.802;2022-12-10T12:52:27;100613.63;;;1.14;87.28
3780;BME280;1905;52.482;9.802;2022-12-10T12:55:02;100616.19;;;1.15;87.01
3780;BME280;1905;52.482;9.802;2022-12-10T12:57:36;100611.88;;;1.13;87.14
3780;BME280;1905;52.482;9.802;2022-12-10T13:00:11;100620.53;;;1.18;87.35
3780;BME280;1905;52.482;9.802;2022-12-10T13:02:50;100620.53;;;1.15;87.42
3780;BME280;1905;52.482;9.802;2022-12-10T13:05:24;100616.22;;;1.14;87.69
3780;BME280;1905;52.482;9.802;2022-12-10T13:08:28;100616.19;;;1.15;86.88
3780;BME280;1905;52.482;9.802;2022-12-10T13:11:00;100618.78;;;1.17;86.97
3780;BME280;1905;52.482;9.802;2022-12-10T13:14:12;100626.63;;;1.14;87.44
3780;BME280;1905;52.482;9.802;2022-12-10T13:16:59;100627.50;;;1.13;87.17
3780;BME280;1905;52.482;9.802;2022-12-10T13:19:29;100630.94;;;1.12;86.97
3780;BME280;1905;52.482;9.802;2022-12-10T13:22:09;100632.66;;;1.14;87.23
3780;BME280;1905;52.482;9.802;2022-12-10T13:24:47;100627.44;;;1.17;87.38
3780;BME280;1905;52.482;9.802;2022-12-10T13:27:32;100632.69;;;1.13;87.76
3780;BME280;1905;52.482;9.802;2022-12-10T13:30:05;100641.34;;;1.15;87.27
3780;BME280;1905;52.482;9.802;2022-12-10T13:32:53;100639.63;;;1.14;87.37
3780;BME280;1905;52.482;9.802;2022-12-10T13:35:28;100643.09;;;1.13;87.51
3780;BME280;1905;52.482;9.802;2022-12-10T13:38:03;100643.06;;;1.16;87.58
3780;BME280;1905;52.482;9.802;2022-12-10T13:40:42;100637.88;;;1.13;87.71
3780;BME280;1905;52.482;9.802;2022-12-10T13:43:35;100643.09;;;1.13;88.06
3780;BME280;1905;52.482;9.802;2022-12-10T13:46:23;100651.75;;;1.09;87.53
3780;BME280;1905;52.482;9.802;2022-12-10T13:48:53;100637.03;;;1.12;87.21